sensor_id;sensor_type;location;lat;lon;timestamp;temperature;humidity
29713;DHT22;16623;53.632;10.016;2023-04-24T00:00:55;12.80;99.90
29713;DHT22;16623;53.632;10.016;2023-04-24T00:03:29;12.80;99.90
29713;DHT22;16623;53.632;10.016;2023-04-24T00:05:55;12.70;99.90
29713;DHT22;16623;53.632;10.016;2023-04-24T00:08:21;12.80;99.90
29713;DHT22;16623;53.632;10.016;2023-04-24T00:10:49;12.80;99.90
29713;DHT22;16623;53.632;10.016;2023-04-24T00:13:15;12.70;99.90
29713;DHT22;16623;53.632;10.016;2023-04-24T00:15:40;12.60;99.90
29713;DHT22;16623;53.632;10.016;2023-04-24T00:18:06;12.60;99.90
29713;DHT22;16623;53.632;10.016;2023-04-24T00:20:31;12.60;99.90
29713;DHT22;16623;53.632;10.016;2023-04-24T00:23:01;12.60;99.90
29713;DHT22;16623;53.632;10.016;2023-04-24T00:25:26;12.60;99.90
29713;DHT22;16623;53.632;10.016;2023-04-24T00:27:52;12.50;99.90
29713;DHT22;16623;53.632;10.016;2023-04-24T00:30:18;12.60;99.90
29713;DHT22;16623;53.632;10.016;2023-04-24T00:32:43;12.60;99.90
29713;DHT22;16623;53.632;10.016;2023-04-24T00:35:11;12.60;99.90
29713;DHT22;16623;53.632;10.016;2023-04-24T00:37:36;12.60;99.90
29713;DHT22;16623;53.632;10.016;2023-04-24T00:40:02;12.60;99.90
29713;DHT22;16623;53.632;10.016;2023-04-24T00:42:28;12.50;99.90
29713;DHT22;16623;53.632;10.016;2023-04-24T00:44:54;12.50;99.90
29713;DHT22;16623;53.632;10.016;2023-04-24T00:47:19;12.50;99.90
29713;DHT22;16623;53.632;10.016;2023-04-24T00:49:47;12.50;99.90
29713;DHT22;16623;53.632;10.016;2023-04-24T00:52:13;12.60;99.90
29713;DHT22;16623;53.632;10.016;2023-04-24T00:54:43;12.50;99.90
29713;DHT22;16623;53.632;10.016;2023-04-24T00:57:09;12.60;99.90
29713;DHT22;16623;53.632;10.016;2023-04-24T00:59:35;12.50;99.90
29713;DHT22;16623;53.632;10.016;2023-04-24T01:02:01;12.60;99.90
29713;DHT22;16623;53.632;10.016;2023-04-24T01:04:27;12.60;99.90
29713;DHT22;16623;53.632;10.016;2023-04-24T01:06:54;12.60;99.90
29713;DHT22;16623;53.632;10.016;2023-04-24T01:09:22;12.60;99.90
29713;DHT22;16623;53.632;10.016;2023-04-24T01:11:49;12.50;99.90
29713;DHT22;16623;53.632;10.016;2023-04-24T01:14:18;12.50;99.90
29713;DHT22;16623;53.632;10.016;2023-04-24T01:16:43;12.50;99.90
29713;DHT22;16623;53.632;10.016;2023-04-24T01:19:10;12.50;99.90
29713;DHT22;16623;53.632;10.016;2023-04-24T01:21:38;12.50;99.90
29713;DHT22;16623;53.632;10.016;2023-04-24T01:24:05;12.40;99.90
29713;DHT22;16623;53.632;10.016;2023-04-24T01:26:31;12.40;99.90
29713;DHT22;16623;53.632;10.016;2023-04-24T01:28:57;12.40;99.90
29713;DHT22;16623;53.632;10.016;2023-04-24T01:31:23;12.30;99.90
29713;DHT22;16623;53.632;10.016;2023-04-24T01:33:52;12.20;99.90
29713;DHT22;16623;53.632;10.016;2023-04-24T01:36:18;12.20;99.90
29713;DHT22;16623;53.632;10.016;2023-04-24T01:38:44;12.30;99.90
29713;DHT22;16623;53.632;10.016;2023-04-24T01:41:10;12.30;99.90
29713;DHT22;16623;53.632;10.016;2023-04-24T01:43:36;12.20;99.90
29713;DHT22;16623;53.632;10.016;2023-04-24T01:46:02;12.30;99.90
29713;DHT22;16623;53.632;10.016;2023-04-24T01:48:28;12.30;99.90
29713;DHT22;16623;53.632;10.016;2023-04-24T01:50:53;12.30;99.90
29713;DHT22;16623;53.632;10.016;2023-04-24T01:53:19;12.30;99.90
29713;DHT22;16623;53.632;10.016;2023-04-24T01:55:44;12.30;99.90
29713;DHT22;16623;53.632;10.016;2023-04-24T01:58:10;12.30;99.90
29713;DHT22;16623;53.632;10.016;2023-04-24T02:00:36;12.30;99.90
29713;DHT22;16623;53.632;10.016;2023-04-24T02:03:01;12.30;99.90
29713;DHT22;16623;53.632;10.016;2023-04-24T02:05:28;12.30;99.90
29713;DHT22;16623;53.632;10.016;2023-04-24T02:07:54;12.30;99.90
29713;DHT22;16623;53.632;10.016;2023-04-24T02:10:19;12.20;99.90
29713;DHT22;16623;53.632;10.016;2023-04-24T02:12:48;12.20;99.90
29713;DHT22;16623;53.632;10.016;2023-04-24T02:15:13;12.20;99.90
29713;DHT22;16623;53.632;10.016;2023-04-24T02:17:40;12.20;99.90
29713;DHT22;16623;53.632;10.016;2023-04-24T02:20:07;12.20;99.90
29713;DHT22;16623;53.632;10.016;2023-04-24T02:22:32;12.20;99.90
29713;DHT22;16623;53.632;10.016;2023-04-24T02:24:58;12.10;99.90
29713;DHT22;16623;53.632;10.016;2023-04-24T02:27:23;12.10;99.90
29713;DHT22;16623;53.632;10.016;2023-04-24T02:29:49;12.10;99.90
29713;DHT22;16623;53.632;10.016;2023-04-24T02:32:14;12.10;99.90
29713;DHT22;16623;53.632;10.016;2023-04-24T02:34:40;12.00;99.90
29713;DHT22;16623;53.632;10.016;2023-04-24T02:37:06;12.00;99.90
29713;DHT22;16623;53.632;10.016;2023-04-24T02:39:32;12.00;99.90
29713;DHT22;16623;53.632;10.016;2023-04-24T02:41:58;12.00;99.90
29713;DHT22;16623;53.632;10.016;2023-04-24T02:44:25;12.10;99.90
29713;DHT22;16623;53.632;10.016;2023-04-24T02:46:50;12.00;99.90
29713;DHT22;16623;53.632;10.016;2023-04-24T02:49:16;12.00;99.90
29713;DHT22;16623;53.632;10.016;2023-04-24T02:51:41;12.00;99.90
29713;DHT22;16623;53.632;10.016;2023-04-24T02:54:08;12.40;99.90
29713;DHT22;16623;53.632;10.016;2023-04-24T02:56:36;11.90;99.90
29713;DHT22;16623;53.632;10.016;2023-04-24T02:59:01;11.80;99.90
29713;DHT22;16623;53.632;10.016;2023-04-24T03:01:27;11.70;99.90
29713;DHT22;16623;53.632;10.016;2023-04-24T03:03:52;11.80;99.90
29713;DHT22;16623;53.632;10.016;2023-04-24T03:06:18;11.80;99.90
29713;DHT22;16623;53.632;10.016;2023-04-24T03:08:43;11.70;99.90
29713;DHT22;16623;53.632;10.016;2023-04-24T03:11:09;11.70;99.90
29713;DHT22;16623;53.632;10.016;2023-04-24T03:13:34;11.60;99.90
29713;DHT22;16623;53.632;10.016;2023-04-24T03:16:00;11.60;99.90
29713;DHT22;16623;53.632;10.016;2023-04-24T03:18:26;11.60;99.90
29713;DHT22;16623;53.632;10.016;2023-04-24T03:20:51;11.60;99.90
29713;DHT22;16623;53.632;10.016;2023-04-24T03:23:17;11.50;99.90
29713;DHT22;16623;53.632;10.016;2023-04-24T03:25:42;11.50;99.90
29713;DHT22;16623;53.632;10.016;2023-04-24T03:28:08;11.50;99.90
29713;DHT22;16623;53.632;10.016;2023-04-24T03:30:33;11.60;99.90
29713;DHT22;16623;53.632;10.016;2023-04-24T03:32:59;11.50;99.90
29713;DHT22;16623;53.632;10.016;2023-04-24T03:35:25;11.60;99.90
29713;DHT22;16623;53.632;10.016;2023-04-24T03:37:51;11.50;99.90
29713;DHT22;16623;53.632;10.016;2023-04-24T03:42:43;11.50;99.90
29713;DHT22;16623;53.632;10.016;2023-04-24T03:45:08;11.40;99.90
29713;DHT22;16623;53.632;10.016;2023-04-24T03:47:34;11.40;99.90
29713;DHT22;16623;53.632;10.016;2023-04-24T03:50:00;11.30;99.90
29713;DHT22;16623;53.632;10.016;2023-04-24T03:52:25;11.30;99.90
29713;DHT22;16623;53.632;10.016;2023-04-24T03:54:51;11.30;99.90
29713;DHT22;16623;53.632;10.016;2023-04-24T03:57:16;11.30;99.90
29713;DHT22;16623;53.632;10.016;2023-04-24T03:59:42;11.20;99.90
29713;DHT22;16623;53.632;10.016;2023-04-24T04:02:08;11.20;99.90
29713;DHT22;16623;53.632;10.016;2023-04-24T04:04:33;11.20;99.90
29713;DHT22;16623;53.632;10.016;2023-04-24T04:06:59;11.30;99.90
29713;DHT22;16623;53.632;10.016;2023-04-24T04:09:28;11.30;99.90
29713;DHT22;16623;53.632;10.016;2023-04-24T04:11:54;11.30;99.90
29713;DHT22;16623;53.632;10.016;2023-04-24T04:14:19;11.40;99.90
29713;DHT22;16623;53.632;10.016;2023-04-24T04:16:45;11.30;99.90
29713;DHT22;16623;53.632;10.016;2023-04-24T04:19:10;11.20;99.90
29713;DHT22;16623;53.632;10.016;2023-04-24T04:21:36;11.20;99.90
29713;DHT22;16623;53.632;10.016;2023-04-24T04:24:02;11.20;99.90
29713;DHT22;16623;53.632;10.016;2023-04-24T04:26:27;11.20;99.90
29713;DHT22;16623;53.632;10.016;2023-04-24T04:28:53;11.20;99.90
29713;DHT22;16623;53.632;10.016;2023-04-24T04:31:19;11.20;99.90
29713;DHT22;16623;53.632;10.016;2023-04-24T04:33:46;11.20;99.90
29713;DHT22;16623;53.632;10.016;2023-04-24T04:36:11;11.20;99.90
29713;DHT22;16623;53.632;10.016;2023-04-24T04:38:37;11.30;99.90
29713;DHT22;16623;53.632;10.016;2023-04-24T04:41:03;11.30;99.90
29713;DHT22;16623;53.632;10.016;2023-04-24T04:43:29;11.30;99.90
29713;DHT22;16623;53.632;10.016;2023-04-24T04:45:57;11.30;99.90
29713;DHT22;16623;53.632;10.016;2023-04-24T04:48:22;11.30;99.90
29713;DHT22;16623;53.632;10.016;2023-04-24T04:50:48;11.40;99.90
29713;DHT22;16623;53.632;10.016;2023-04-24T04:53:14;11.40;99.90
29713;DHT22;16623;53.632;10.016;2023-04-24T04:55:40;11.50;99.90
29713;DHT22;16623;53.632;10.016;2023-04-24T04:58:05;11.60;99.90
29713;DHT22;16623;53.632;10.016;2023-04-24T05:00:31;11.80;99.90
29713;DHT22;16623;53.632;10.016;2023-04-24T05:03:01;12.00;99.90
29713;DHT22;16623;53.632;10.016;2023-04-24T05:05:26;12.20;99.90
29713;DHT22;16623;53.632;10.016;2023-04-24T05:07:52;12.20;99.90
29713;DHT22;16623;53.632;10.016;2023-04-24T05:10:18;12.20;99.90
29713;DHT22;16623;53.632;10.016;2023-04-24T05:12:43;12.30;99.90
29713;DHT22;16623;53.632;10.016;2023-04-24T05:15:09;12.30;99.90
29713;DHT22;16623;53.632;10.016;2023-04-24T05:17:36;12.20;99.90
29713;DHT22;16623;53.632;10.016;2023-04-24T05:20:03;12.10;99.90
29713;DHT22;16623;53.632;10.016;2023-04-24T05:22:31;12.10;99.90
29713;DHT22;16623;53.632;10.016;2023-04-24T05:27:22;12.10;99.90
29713;DHT22;16623;53.632;10.016;2023-04-24T05:29:48;12.10;99.90
29713;DHT22;16623;53.632;10.016;2023-04-24T05:32:13;12.10;99.90
29713;DHT22;16623;53.632;10.016;2023-04-24T05:34:39;12.10;99.90
29713;DHT22;16623;53.632;10.016;2023-04-24T05:37:05;12.20;99.90
29713;DHT22;16623;53.632;10.016;2023-04-24T05:39:34;12.30;99.90
29713;DHT22;16623;53.632;10.016;2023-04-24T05:42:00;12.30;99.90
29713;DHT22;16623;53.632;10.016;2023-04-24T05:44:26;12.40;99.90
29713;DHT22;16623;53.632;10.016;2023-04-24T05:46:52;12.70;99.90
29713;DHT22;16623;53.632;10.016;2023-04-24T05:49:17;13.10;99.90
29713;DHT22;16623;53.632;10.016;2023-04-24T05:51:43;13.20;99.90
29713;DHT22;16623;53.632;10.016;2023-04-24T05:54:08;13.30;99.90
29713;DHT22;16623;53.632;10.016;2023-04-24T05:56:35;13.10;99.90
29713;DHT22;16623;53.632;10.016;2023-04-24T05:59:01;13.10;99.90
29713;DHT22;16623;53.632;10.016;2023-04-24T06:01:27;13.10;99.90
29713;DHT22;16623;53.632;10.016;2023-04-24T06:03:52;13.30;99.90
29713;DHT22;16623;53.632;10.016;2023-04-24T06:06:18;13.40;99.90
29713;DHT22;16623;53.632;10.016;2023-04-24T06:08:44;13.40;99.90
29713;DHT22;16623;53.632;10.016;2023-04-24T06:11:10;13.40;99.90
29713;DHT22;16623;53.632;10.016;2023-04-24T06:13:36;13.30;99.90
29713;DHT22;16623;53.632;10.016;2023-04-24T06:16:01;13.40;99.90
29713;DHT22;16623;53.632;10.016;2023-04-24T06:18:27;13.40;99.90
29713;DHT22;16623;53.632;10.016;2023-04-24T06:20:52;13.50;99.90
29713;DHT22;16623;53.632;10.016;2023-04-24T06:23:18;13.60;99.90
29713;DHT22;16623;53.632;10.016;2023-04-24T06:25:44;13.60;99.90
29713;DHT22;16623;53.632;10.016;2023-04-24T06:28:09;13.70;99.90
29713;DHT22;16623;53.632;10.016;2023-04-24T06:30:35;13.60;99.90
29713;DHT22;16623;53.632;10.016;2023-04-24T06:33:00;13.60;99.90
29713;DHT22;16623;53.632;10.016;2023-04-24T06:35:26;13.80;99.90
29713;DHT22;16623;53.632;10.016;2023-04-24T06:37:52;14.10;99.90
29713;DHT22;16623;53.632;10.016;2023-04-24T06:40:17;14.40;99.90
29713;DHT22;16623;53.632;10.016;2023-04-24T06:42:44;14.60;99.90
29713;DHT22;16623;53.632;10.016;2023-04-24T06:45:11;14.80;99.90
29713;DHT22;16623;53.632;10.016;2023-04-24T06:47:37;14.80;99.90
29713;DHT22;16623;53.632;10.016;2023-04-24T06:50:03;14.80;99.90
29713;DHT22;16623;53.632;10.016;2023-04-24T06:52:29;14.80;99.90
29713;DHT22;16623;53.632;10.016;2023-04-24T06:55:02;14.60;99.90
29713;DHT22;16623;53.632;10.016;2023-04-24T06:57:28;14.30;99.90
29713;DHT22;16623;53.632;10.016;2023-04-24T06:59:54;14.20;99.90
29713;DHT22;16623;53.632;10.016;2023-04-24T07:02:19;14.20;99.90
29713;DHT22;16623;53.632;10.016;2023-04-24T07:04:45;14.30;99.90
29713;DHT22;16623;53.632;10.016;2023-04-24T07:07:12;14.30;99.90
29713;DHT22;16623;53.632;10.016;2023-04-24T07:09:39;14.30;99.90
29713;DHT22;16623;53.632;10.016;2023-04-24T07:12:08;14.40;99.90
29713;DHT22;16623;53.632;10.016;2023-04-24T07:14:35;14.50;99.90
29713;DHT22;16623;53.632;10.016;2023-04-24T07:17:05;14.30;99.90
29713;DHT22;16623;53.632;10.016;2023-04-24T07:19:33;14.30;99.90
29713;DHT22;16623;53.632;10.016;2023-04-24T07:21:59;14.20;99.90
29713;DHT22;16623;53.632;10.016;2023-04-24T07:24:25;14.20;99.90
29713;DHT22;16623;53.632;10.016;2023-04-24T07:26:51;14.50;99.90
29713;DHT22;16623;53.632;10.016;2023-04-24T07:29:17;14.50;99.90
29713;DHT22;16623;53.632;10.016;2023-04-24T07:31:43;14.60;99.90
29713;DHT22;16623;53.632;10.016;2023-04-24T07:34:09;14.40;99.90
29713;DHT22;16623;53.632;10.016;2023-04-24T07:36:34;14.30;99.90
29713;DHT22;16623;53.632;10.016;2023-04-24T07:39:00;14.40;99.90
29713;DHT22;16623;53.632;10.016;2023-04-24T07:41:26;14.70;99.90
29713;DHT22;16623;53.632;10.016;2023-04-24T07:43:53;14.80;99.90
29713;DHT22;16623;53.632;10.016;2023-04-24T07:46:20;14.80;99.90
29713;DHT22;16623;53.632;10.016;2023-04-24T07:48:46;14.80;99.90
29713;DHT22;16623;53.632;10.016;2023-04-24T07:51:14;14.60;99.90
29713;DHT22;16623;53.632;10.016;2023-04-24T07:53:40;14.70;99.90
29713;DHT22;16623;53.632;10.016;2023-04-24T07:56:06;14.90;99.90
29713;DHT22;16623;53.632;10.016;2023-04-24T07:58:32;15.10;99.90
29713;DHT22;16623;53.632;10.016;2023-04-24T08:00:57;15.30;99.90
29713;DHT22;16623;53.632;10.016;2023-04-24T08:03:23;15.30;99.90
29713;DHT22;16623;53.632;10.016;2023-04-24T08:05:49;15.00;99.90
29713;DHT22;16623;53.632;10.016;2023-04-24T08:08:16;14.90;99.90
29713;DHT22;16623;53.632;10.016;2023-04-24T08:10:42;14.80;99.90
29713;DHT22;16623;53.632;10.016;2023-04-24T08:13:08;14.60;99.90
29713;DHT22;16623;53.632;10.016;2023-04-24T08:15:34;14.30;99.90
29713;DHT22;16623;53.632;10.016;2023-04-24T08:17:59;14.30;99.90
29713;DHT22;16623;53.632;10.016;2023-04-24T08:20:25;14.40;99.90
29713;DHT22;16623;53.632;10.016;2023-04-24T08:22:51;14.50;99.90
29713;DHT22;16623;53.632;10.016;2023-04-24T08:25:16;14.60;99.90
29713;DHT22;16623;53.632;10.016;2023-04-24T08:27:43;14.60;99.90
29713;DHT22;16623;53.632;10.016;2023-04-24T08:30:09;14.60;99.90
29713;DHT22;16623;53.632;10.016;2023-04-24T08:32:36;14.50;99.90
29713;DHT22;16623;53.632;10.016;2023-04-24T08:35:02;14.50;99.90
29713;DHT22;16623;53.632;10.016;2023-04-24T08:37:29;14.50;99.90
29713;DHT22;16623;53.632;10.016;2023-04-24T08:39:54;14.40;99.90
29713;DHT22;16623;53.632;10.016;2023-04-24T08:42:20;14.20;99.90
29713;DHT22;16623;53.632;10.016;2023-04-24T08:44:48;14.10;99.90
29713;DHT22;16623;53.632;10.016;2023-04-24T08:47:15;14.20;99.90
29713;DHT22;16623;53.632;10.016;2023-04-24T08:49:41;14.30;99.90
29713;DHT22;16623;53.632;10.016;2023-04-24T08:52:08;14.30;99.90
29713;DHT22;16623;53.632;10.016;2023-04-24T08:54:35;14.30;99.90
29713;DHT22;16623;53.632;10.016;2023-04-24T08:57:01;14.10;99.90
29713;DHT22;16623;53.632;10.016;2023-04-24T08:59:29;14.10;99.90
29713;DHT22;16623;53.632;10.016;2023-04-24T09:01:55;13.90;99.90
29713;DHT22;16623;53.632;10.016;2023-04-24T09:04:22;14.00;99.90
29713;DHT22;16623;53.632;10.016;2023-04-24T09:06:50;14.20;99.90
29713;DHT22;16623;53.632;10.016;2023-04-24T09:09:16;14.40;99.90
29713;DHT22;16623;53.632;10.016;2023-04-24T09:11:43;14.50;99.90
29713;DHT22;16623;53.632;10.016;2023-04-24T09:14:10;14.60;99.90
29713;DHT22;16623;53.632;10.016;2023-04-24T09:16:36;14.50;99.90
29713;DHT22;16623;53.632;10.016;2023-04-24T09:19:02;14.70;99.90
29713;DHT22;16623;53.632;10.016;2023-04-24T09:21:32;15.00;99.90
29713;DHT22;16623;53.632;10.016;2023-04-24T09:24:00;15.20;99.90
29713;DHT22;16623;53.632;10.016;2023-04-24T09:26:28;15.20;99.90
29713;DHT22;16623;53.632;10.016;2023-04-24T09:28:54;15.30;99.90
29713;DHT22;16623;53.632;10.016;2023-04-24T09:31:19;15.30;99.90
29713;DHT22;16623;53.632;10.016;2023-04-24T09:34:13;15.20;99.90
29713;DHT22;16623;53.632;10.016;2023-04-24T09:36:41;14.80;99.90
29713;DHT22;16623;53.632;10.016;2023-04-24T09:39:14;14.80;99.90
29713;DHT22;16623;53.632;10.016;2023-04-24T09:41:54;14.60;99.90
29713;DHT22;16623;53.632;10.016;2023-04-24T09:44:26;14.60;99.90
29713;DHT22;16623;53.632;10.016;2023-04-24T09:46:58;14.50;99.90
29713;DHT22;16623;53.632;10.016;2023-04-24T09:49:27;14.60;99.90
29713;DHT22;16623;53.632;10.016;2023-04-24T09:52:09;14.50;99.90
29713;DHT22;16623;53.632;10.016;2023-04-24T09:54:35;14.40;99.90
29713;DHT22;16623;53.632;10.016;2023-04-24T09:57:02;14.40;99.90
29713;DHT22;16623;53.632;10.016;2023-04-24T09:59:29;14.20;99.90
29713;DHT22;16623;53.632;10.016;2023-04-24T10:01:55;14.10;99.90
29713;DHT22;16623;53.632;10.016;2023-04-24T10:04:24;14.00;99.90
29713;DHT22;16623;53.632;10.016;2023-04-24T10:06:51;14.00;99.90
29713;DHT22;16623;53.632;10.016;2023-04-24T10:09:19;14.00;99.90
29713;DHT22;16623;53.632;10.016;2023-04-24T10:11:47;14.00;99.90
29713;DHT22;16623;53.632;10.016;2023-04-24T10:14:18;13.90;99.90
29713;DHT22;16623;53.632;10.016;2023-04-24T10:16:47;13.90;99.90
29713;DHT22;16623;53.632;10.016;2023-04-24T10:19:14;14.00;99.90
29713;DHT22;16623;53.632;10.016;2023-04-24T10:21:42;14.00;99.90
29713;DHT22;16623;53.632;10.016;2023-04-24T10:24:14;14.00;99.90
29713;DHT22;16623;53.632;10.016;2023-04-24T10:26:41;14.00;99.90
29713;DHT22;16623;53.632;10.016;2023-04-24T10:29:07;14.00;99.90
29713;DHT22;16623;53.632;10.016;2023-04-24T10:31:36;13.90;99.90
29713;DHT22;16623;53.632;10.016;2023-04-24T10:34:04;13.80;99.90
29713;DHT22;16623;53.632;10.016;2023-04-24T10:36:31;13.90;99.90
29713;DHT22;16623;53.632;10.016;2023-04-24T10:39:01;13.90;99.90
29713;DHT22;16623;53.632;10.016;2023-04-24T10:41:30;13.90;99.90
29713;DHT22;16623;53.632;10.016;2023-04-24T10:46:33;13.90;99.90
29713;DHT22;16623;53.632;10.016;2023-04-24T10:48:59;14.00;99.90
29713;DHT22;16623;53.632;10.016;2023-04-24T10:51:48;13.90;99.90
29713;DHT22;16623;53.632;10.016;2023-04-24T10:54:28;13.90;99.90
29713;DHT22;16623;53.632;10.016;2023-04-24T10:59:50;14.00;99.90
29713;DHT22;16623;53.632;10.016;2023-04-24T11:02:17;14.10;99.90
29713;DHT22;16623;53.632;10.016;2023-04-24T11:04:43;14.00;99.90
29713;DHT22;16623;53.632;10.016;2023-04-24T11:07:09;14.20;99.90
29713;DHT22;16623;53.632;10.016;2023-04-24T11:09:35;14.20;99.90
29713;DHT22;16623;53.632;10.016;2023-04-24T11:12:05;14.10;99.90
29713;DHT22;16623;53.632;10.016;2023-04-24T11:17:37;14.20;99.90
29713;DHT22;16623;53.632;10.016;2023-04-24T11:20:10;14.40;99.90
29713;DHT22;16623;53.632;10.016;2023-04-24T11:22:38;14.50;99.90
29713;DHT22;16623;53.632;10.016;2023-04-24T11:25:06;14.60;99.90
29713;DHT22;16623;53.632;10.016;2023-04-24T11:27:40;14.70;99.90
29713;DHT22;16623;53.632;10.016;2023-04-24T11:30:06;14.70;99.90
29713;DHT22;16623;53.632;10.016;2023-04-24T11:32:40;14.80;99.90
29713;DHT22;16623;53.632;10.016;2023-04-24T11:37:42;14.80;99.90
29713;DHT22;16623;53.632;10.016;2023-04-24T11:40:10;14.80;99.90
29713;DHT22;16623;53.632;10.016;2023-04-24T11:42:40;14.90;99.90
29713;DHT22;16623;53.632;10.016;2023-04-24T11:45:26;14.90;99.90
29713;DHT22;16623;53.632;10.016;2023-04-24T11:47:52;14.90;99.90
29713;DHT22;16623;53.632;10.016;2023-04-24T11:50:20;15.00;99.90
29713;DHT22;16623;53.632;10.016;2023-04-24T11:52:48;14.90;99.90
29713;DHT22;16623;53.632;10.016;2023-04-24T11:57:40;14.90;99.90
29713;DHT22;16623;53.632;10.016;2023-04-24T12:00:15;14.90;99.90
29713;DHT22;16623;53.632;10.016;2023-04-24T12:02:41;14.90;99.90
29713;DHT22;16623;53.632;10.016;2023-04-24T12:05:07;14.60;99.90
29713;DHT22;16623;53.632;10.016;2023-04-24T12:07:41;14.60;99.90
29713;DHT22;16623;53.632;10.016;2023-04-24T12:10:08;14.50;99.90
29713;DHT22;16623;53.632;10.016;2023-04-24T12:12:35;14.50;99.90
29713;DHT22;16623;53.632;10.016;2023-04-24T12:15:01;14.50;99.90
29713;DHT22;16623;53.632;10.016;2023-04-24T12:17:33;14.60;99.90
29713;DHT22;16623;53.632;10.016;2023-04-24T12:20:07;14.70;99.90
29713;DHT22;16623;53.632;10.016;2023-04-24T12:22:47;14.70;99.90
29713;DHT22;16623;53.632;10.016;2023-04-24T12:25:14;14.60;99.90
29713;DHT22;16623;53.632;10.016;2023-04-24T12:27:40;14.70;99.90
29713;DHT22;16623;53.632;10.016;2023-04-24T12:30:10;14.90;99.90
29713;DHT22;16623;53.632;10.016;2023-04-24T12:32:41;15.00;99.90
29713;DHT22;16623;53.632;10.016;2023-04-24T12:35:08;14.90;99.90
29713;DHT22;16623;53.632;10.016;2023-04-24T12:37:34;14.80;99.90
29713;DHT22;16623;53.632;10.016;2023-04-24T12:40:04;14.80;99.90
29713;DHT22;16623;53.632;10.016;2023-04-24T12:42:34;14.50;99.90
29713;DHT22;16623;53.632;10.016;2023-04-24T12:45:04;14.40;99.90
29713;DHT22;16623;53.632;10.016;2023-04-24T12:47:32;14.30;99.90
29713;DHT22;16623;53.632;10.016;2023-04-24T12:49:58;14.40;99.90
29713;DHT22;16623;53.632;10.016;2023-04-24T12:52:26;14.50;99.90
29713;DHT22;16623;53.632;10.016;2023-04-24T12:54:57;14.50;99.90
29713;DHT22;16623;53.632;10.016;2023-04-24T12:57:24;14.30;99.90
29713;DHT22;16623;53.632;10.016;2023-04-24T12:59:52;14.20;99.90
29713;DHT22;16623;53.632;10.016;2023-04-24T13:02:17;14.20;99.90
29713;DHT22;16623;53.632;10.016;2023-04-24T13:04:49;14.00;99.90
29713;DHT22;16623;53.632;10.016;2023-04-24T13:07:15;13.80;99.90
29713;DHT22;16623;53.632;10.016;2023-04-24T13:09:42;13.60;99.90
29713;DHT22;16623;53.632;10.016;2023-04-24T13:12:08;13.50;99.90
29713;DHT22;16623;53.632;10.016;2023-04-24T13:14:35;13.40;99.90
29713;DHT22;16623;53.632;10.016;2023-04-24T13:17:00;13.20;99.90
29713;DHT22;16623;53.632;10.016;2023-04-24T13:19:26;13.30;99.90
29713;DHT22;16623;53.632;10.016;2023-04-24T13:21:53;13.30;99.90
29713;DHT22;16623;53.632;10.016;2023-04-24T13:24:19;13.30;99.90
29713;DHT22;16623;53.632;10.016;2023-04-24T13:26:45;13.40;99.90
29713;DHT22;16623;53.632;10.016;2023-04-24T13:29:11;13.30;99.90
29713;DHT22;16623;53.632;10.016;2023-04-24T13:31:36;13.40;99.90
29713;DHT22;16623;53.632;10.016;2023-04-24T13:34:02;13.40;99.90
29713;DHT22;16623;53.632;10.016;2023-04-24T13:36:29;13.40;99.90
29713;DHT22;16623;53.632;10.016;2023-04-24T13:38:55;13.50;99.90
29713;DHT22;16623;53.632;10.016;2023-04-24T13:41:21;13.60;99.90
29713;DHT22;16623;53.632;10.016;2023-04-24T13:43:46;13.60;99.90
29713;DHT22;16623;53.632;10.016;2023-04-24T13:46:12;13.60;99.90
29713;DHT22;16623;53.632;10.016;2023-04-24T13:48:37;13.50;99.90
29713;DHT22;16623;53.632;10.016;2023-04-24T13:51:03;13.40;99.90
29713;DHT22;16623;53.632;10.016;2023-04-24T13:53:29;13.40;99.90
29713;DHT22;16623;53.632;10.016;2023-04-24T13:55:54;13.40;99.90
29713;DHT22;16623;53.632;10.016;2023-04-24T13:58:20;13.20;99.90
29713;DHT22;16623;53.632;10.016;2023-04-24T14:00:46;13.30;99.90
29713;DHT22;16623;53.632;10.016;2023-04-24T14:03:11;13.30;99.90
29713;DHT22;16623;53.632;10.016;2023-04-24T14:05:37;13.30;99.90
29713;DHT22;16623;53.632;10.016;2023-04-24T14:08:02;13.30;99.90
29713;DHT22;16623;53.632;10.016;2023-04-24T14:10:28;13.30;99.90
29713;DHT22;16623;53.632;10.016;2023-04-24T14:12:53;13.30;99.90
29713;DHT22;16623;53.632;10.016;2023-04-24T14:15:20;13.30;99.90
29713;DHT22;16623;53.632;10.016;2023-04-24T14:17:47;13.20;99.90
29713;DHT22;16623;53.632;10.016;2023-04-24T14:20:14;13.20;99.90
29713;DHT22;16623;53.632;10.016;2023-04-24T14:22:39;13.20;99.90
29713;DHT22;16623;53.632;10.016;2023-04-24T14:25:06;13.10;99.90
29713;DHT22;16623;53.632;10.016;2023-04-24T14:27:32;13.20;99.90
29713;DHT22;16623;53.632;10.016;2023-04-24T14:30:01;13.20;99.90
29713;DHT22;16623;53.632;10.016;2023-04-24T14:32:27;13.20;99.90
29713;DHT22;16623;53.632;10.016;2023-04-24T14:34:53;13.10;99.90
29713;DHT22;16623;53.632;10.016;2023-04-24T14:37:19;13.10;99.90
29713;DHT22;16623;53.632;10.016;2023-04-24T14:39:45;12.90;99.90
29713;DHT22;16623;53.632;10.016;2023-04-24T14:42:10;12.70;99.90
29713;DHT22;16623;53.632;10.016;2023-04-24T14:44:36;12.50;99.90
29713;DHT22;16623;53.632;10.016;2023-04-24T14:47:01;12.40;99.90
29713;DHT22;16623;53.632;10.016;2023-04-24T14:49:27;12.20;99.90
29713;DHT22;16623;53.632;10.016;2023-04-24T14:51:52;12.00;99.90
29713;DHT22;16623;53.632;10.016;2023-04-24T14:54:19;11.90;99.90
29713;DHT22;16623;53.632;10.016;2023-04-24T14:56:48;11.70;99.90
29713;DHT22;16623;53.632;10.016;2023-04-24T14:59:14;11.50;99.90
29713;DHT22;16623;53.632;10.016;2023-04-24T15:01:40;11.40;99.90
29713;DHT22;16623;53.632;10.016;2023-04-24T15:04:05;11.20;99.90
29713;DHT22;16623;53.632;10.016;2023-04-24T15:06:31;11.10;99.90
29713;DHT22;16623;53.632;10.016;2023-04-24T15:08:57;11.20;99.90
29713;DHT22;16623;53.632;10.016;2023-04-24T15:11:23;11.10;99.90
29713;DHT22;16623;53.632;10.016;2023-04-24T15:13:49;11.20;99.90
29713;DHT22;16623;53.632;10.016;2023-04-24T15:16:15;11.10;99.90
29713;DHT22;16623;53.632;10.016;2023-04-24T15:18:41;11.00;99.90
29713;DHT22;16623;53.632;10.016;2023-04-24T15:21:07;11.00;99.90
29713;DHT22;16623;53.632;10.016;2023-04-24T15:23:32;10.90;99.90
29713;DHT22;16623;53.632;10.016;2023-04-24T15:25:58;11.00;99.90
29713;DHT22;16623;53.632;10.016;2023-04-24T15:28:24;10.90;99.90
29713;DHT22;16623;53.632;10.016;2023-04-24T15:30:50;10.80;99.90